Time;durP1;ratioP1;P1;durP2;ratioP2;P2;SDS_P1;SDS_P2;PMS_P1;PMS_P2;Temp;Humidity;BMP_temperature;BMP_pressure;BME280_temperature;BME280_humidity;BME280_pressure;Samples;Min_cycle;Max_cycle;Signal;HPM_P1;HPM_P2
2022/11/15 00:02:37;;;;;;;55.90;33.73;;;9.50;99.90;;;;;;5074099;28;20681;-71
2022/11/15 00:05:23;;;;;;;59.07;36.13;;;9.40;99.90;;;;;;5074382;28;20220;-72
2022/11/15 00:08:11;;;;;;;62.03;35.27;;;9.30;99.90;;;;;;5074341;28;20691;-79
2022/11/15 00:10:59;;;;;;;55.67;34.20;;;9.40;99.90;;;;;;5074330;28;20280;-73
2022/11/15 00:13:47;;;;;;;55.43;35.07;;;9.30;99.90;;;;;;5075007;28;20223;-69
2022/11/15 00:16:35;;;;;;;58.73;35.47;;;9.30;99.90;;;;;;5074827;28;20198;-72
2022/11/15 00:19:22;;;;;;;65.40;36.63;;;9.10;99.90;;;;;;5074340;28;20203;-72
2022/11/15 00:22:09;;;;;;;58.70;34.87;;;9.20;99.90;;;;;;5074215;28;20197;-72
2022/11/15 00:24:56;;;;;;;58.47;34.10;;;9.30;99.90;;;;;;5074562;28;20254;-72
2022/11/15 00:27:45;;;;;;;58.87;34.03;;;9.30;99.90;;;;;;5074455;28;20724;-72
2022/11/15 00:30:33;;;;;;;59.97;33.23;;;9.20;99.90;;;;;;5074623;28;20280;-71
2022/11/15 00:33:20;;;;;;;63.30;37.07;;;9.20;99.90;;;;;;5074608;28;20216;-74
2022/11/15 00:36:10;;;;;;;52.10;32.27;;;9.20;99.90;;;;;;5074066;28;20205;-73
2022/11/15 00:38:57;;;;;;;58.77;32.90;;;9.20;99.90;;;;;;5073938;28;20561;-71
2022/11/15 00:41:44;;;;;;;51.97;31.37;;;9.10;99.90;;;;;;5074277;28;20198;-71
2022/11/15 00:44:31;;;;;;;57.50;32.60;;;9.20;99.90;;;;;;5074492;28;20290;-72
2022/11/15 00:47:20;;;;;;;62.33;33.23;;;9.30;99.90;;;;;;5073801;28;20784;-71
2022/11/15 00:50:08;;;;;;;59.90;31.80;;;9.30;99.90;;;;;;5073609;28;20209;-71
2022/11/15 00:53:00;;;;;;;53.87;33.07;;;9.30;99.90;;;;;;5073562;28;20211;-74
2022/11/15 00:55:47;;;;;;;56.43;33.87;;;9.30;99.90;;;;;;5074152;28;20671;-74
2022/11/15 00:58:34;;;;;;;52.00;32.13;;;9.30;99.90;;;;;;5073990;28;20202;-73
2022/11/15 01:01:22;;;;;;;56.77;32.13;;;9.30;99.90;;;;;;5074163;28;20209;-72
2022/11/15 01:04:10;;;;;;;51.83;32.10;;;9.40;99.90;;;;;;5073786;28;20274;-70
2022/11/15 01:06:58;;;;;;;57.27;32.57;;;9.40;99.90;;;;;;5073324;28;20369;-69
2022/11/15 01:09:45;;;;;;;54.80;33.60;;;9.40;99.90;;;;;;5073956;28;20208;-72
2022/11/15 01:12:32;;;;;;;62.10;34.30;;;9.40;99.90;;;;;;5073656;28;20587;-72
2022/11/15 01:15:19;;;;;;;61.93;35.73;;;9.50;99.90;;;;;;5073601;28;20252;-71
2022/11/15 01:18:06;;;;;;;59.33;34.13;;;9.40;99.90;;;;;;5073745;28;20211;-70
2022/11/15 01:20:55;;;;;;;58.47;35.07;;;9.30;99.90;;;;;;5073185;28;20732;-71
2022/11/15 01:23:43;;;;;;;60.37;31.83;;;9.40;99.90;;;;;;5073356;28;20610;-72
2022/11/15 01:26:30;;;;;;;54.20;32.30;;;9.40;99.90;;;;;;5073563;28;20269;-71
2022/11/15 01:29:17;;;;;;;58.87;32.60;;;9.40;99.90;;;;;;5073649;28;20562;-71
2022/11/15 01:32:05;;;;;;;62.10;34.10;;;9.30;99.90;;;;;;5073630;28;20610;-73
2022/11/15 01:34:52;;;;;;;62.50;34.70;;;9.10;99.90;;;;;;5073491;28;20205;-72
2022/11/15 01:37:41;;;;;;;61.37;34.40;;;9.10;99.90;;;;;;5073266;28;20265;-71
2022/11/15 01:40:28;;;;;;;57.87;34.17;;;9.20;99.90;;;;;;5073594;28;20218;-72
2022/11/15 01:43:26;;;;;;;65.60;33.00;;;9.30;99.90;;;;;;5073131;28;20279;-72
2022/11/15 01:46:30;;;;;;;66.27;34.13;;;9.30;99.90;;;;;;5073405;28;20565;-71
2022/11/15 01:49:20;;;;;;;61.67;33.37;;;9.10;99.90;;;;;;5072926;28;20681;-71
2022/11/15 01:52:11;;;;;;;57.07;31.27;;;9.10;99.90;;;;;;5073157;28;20201;-71
2022/11/15 01:55:06;;;;;;;60.10;32.17;;;9.20;99.90;;;;;;5073196;28;20673;-74
2022/11/15 01:57:58;;;;;;;59.77;33.33;;;9.10;99.90;;;;;;5073283;28;20211;-70
2022/11/15 02:00:47;;;;;;;59.33;32.27;;;9.10;99.90;;;;;;5073376;28;20565;-72
2022/11/15 02:03:42;;;;;;;62.10;32.87;;;9.10;99.90;;;;;;5073263;28;20205;-70
2022/11/15 02:06:29;;;;;;;64.20;34.07;;;9.00;99.90;;;;;;5072602;28;20217;-71
2022/11/15 02:09:18;;;;;;;64.30;32.90;;;9.00;99.90;;;;;;5072829;28;20225;-73
2022/11/15 02:12:08;;;;;;;57.77;31.80;;;9.10;99.90;;;;;;5073205;28;20259;-73
2022/11/15 02:14:57;;;;;;;64.93;33.93;;;9.10;99.90;;;;;;5072821;28;20272;-73
2022/11/15 02:18:08;;;;;;;65.73;34.93;;;9.10;99.90;;;;;;5072687;28;20271;-73
2022/11/15 02:21:16;;;;;;;61.17;33.37;;;9.20;99.90;;;;;;5076590;28;20236;-72
2022/11/15 02:24:38;;;;;;;60.50;32.53;;;9.20;99.90;;;;;;5077140;28;20308;-69
2022/11/15 02:27:54;;;;;;;66.93;32.93;;;9.30;99.90;;;;;;5076808;28;20698;-71
2022/11/15 02:30:47;;;;;;;58.57;32.60;;;9.20;99.90;;;;;;5077004;28;20202;-71
2022/11/15 02:33:43;;;;;;;62.33;32.53;;;9.30;99.90;;;;;;5076996;28;20311;-70
2022/11/15 02:36:37;;;;;;;59.00;32.00;;;9.30;99.90;;;;;;5076803;28;20208;-71
2022/11/15 02:39:31;;;;;;;63.90;32.43;;;9.10;99.90;;;;;;5076966;28;20220;-71
2022/11/15 02:45:31;;;;;;;64.60;32.57;;;8.90;99.90;;;;;;5067095;28;20205;-72
2022/11/15 02:48:22;;;;;;;60.63;33.20;;;8.90;99.90;;;;;;5061278;28;20251;-73
2022/11/15 02:51:10;;;;;;;67.83;33.43;;;8.90;99.90;;;;;;5069094;28;20688;-72
2022/11/15 02:53:57;;;;;;;63.57;33.23;;;9.00;99.90;;;;;;5076582;28;20319;-72
2022/11/15 02:56:46;;;;;;;59.27;31.43;;;8.90;99.90;;;;;;5076552;28;20212;-72
2022/11/15 02:59:53;;;;;;;61.37;33.70;;;8.90;99.90;;;;;;5056116;28;20250;-74
2022/11/15 03:03:14;;;;;;;59.30;30.93;;;9.00;99.90;;;;;;5056356;28;20335;-72
2022/11/15 03:06:13;;;;;;;58.07;29.67;;;9.10;99.90;;;;;;5056100;28;20210;-73
2022/11/15 03:09:06;;;;;;;58.73;30.33;;;9.10;99.90;;;;;;5055960;28;20235;-73
2022/11/15 03:12:00;;;;;;;62.00;33.37;;;9.10;99.90;;;;;;5071058;28;20238;-72
2022/11/15 03:14:55;;;;;;;58.53;29.87;;;9.10;99.90;;;;;;5075866;28;20678;-74
2022/11/15 03:17:49;;;;;;;53.80;28.73;;;9.10;99.90;;;;;;5076226;28;20259;-72
2022/11/15 03:20:37;;;;;;;53.93;28.83;;;9.20;99.90;;;;;;5075552;28;20220;-73
2022/11/15 03:23:27;;;;;;;59.80;30.67;;;9.30;99.90;;;;;;5076015;28;20209;-70
2022/11/15 03:26:17;;;;;;;56.47;29.57;;;9.20;99.90;;;;;;5075654;28;20310;-72
2022/11/15 03:29:09;;;;;;;60.20;30.90;;;9.10;99.90;;;;;;5075402;28;20619;-73
2022/11/15 03:32:00;;;;;;;63.97;31.07;;;9.10;99.90;;;;;;5075835;28;20209;-73
2022/11/15 03:34:53;;;;;;;59.10;31.40;;;9.20;99.90;;;;;;5075551;28;20206;-72
2022/11/15 03:37:47;;;;;;;55.50;29.33;;;9.20;99.90;;;;;;5075480;28;20288;-72
2022/11/15 03:40:40;;;;;;;59.93;31.40;;;9.20;99.90;;;;;;5075696;28;20293;-73
2022/11/15 03:43:42;;;;;;;57.67;29.87;;;9.30;99.90;;;;;;5075352;28;20197;-72
2022/11/15 03:46:35;;;;;;;63.43;32.00;;;9.30;99.90;;;;;;5075378;28;20731;-71
2022/11/15 03:49:26;;;;;;;63.37;32.83;;;9.30;99.90;;;;;;5075134;28;20237;-70
2022/11/15 03:52:13;;;;;;;64.10;33.23;;;9.30;99.90;;;;;;5075120;28;20201;-71
2022/11/15 03:55:03;;;;;;;68.83;33.93;;;9.40;99.90;;;;;;5075182;28;20644;-72
2022/11/15 03:57:55;;;;;;;62.07;31.53;;;9.30;99.90;;;;;;5075515;28;20311;-73
2022/11/15 04:00:42;;;;;;;67.97;33.43;;;9.20;99.90;;;;;;5075075;28;20206;-72
2022/11/15 04:03:29;;;;;;;65.10;31.43;;;9.30;99.90;;;;;;5074951;28;20590;-72
2022/11/15 04:06:17;;;;;;;65.40;32.87;;;9.30;99.90;;;;;;5074844;28;20204;-72
2022/11/15 04:09:04;;;;;;;67.03;32.27;;;9.40;99.90;;;;;;5074717;28;20221;-71
2022/11/15 04:11:51;;;;;;;63.27;30.57;;;9.30;99.90;;;;;;5074797;28;20301;-71
2022/11/15 04:15:06;;;;;;;64.07;31.57;;;9.30;99.90;;;;;;5075203;28;20206;-70
2022/11/15 04:17:49;;;;;;;64.73;30.20;;;9.20;99.90;;;;;;5074777;28;20262;-71
2022/11/15 04:26:47;;;;;;;59.63;30.17;;;8.90;99.90;;;;;;4993117;28;20205;-73
2022/11/15 04:29:37;;;;;;;57.57;31.00;;;8.90;99.90;;;;;;4993188;28;20278;-71
2022/11/15 04:32:25;;;;;;;54.57;29.13;;;9.00;99.90;;;;;;4993417;28;21122;-72
2022/11/15 04:35:13;;;;;;;56.90;29.23;;;9.10;99.90;;;;;;4993408;28;20714;-69
2022/11/15 04:38:01;;;;;;;59.97;29.23;;;9.10;99.90;;;;;;4992788;28;20357;-72
2022/11/15 04:40:48;;;;;;;61.13;30.20;;;9.10;99.90;;;;;;4992970;28;20214;-73
2022/11/15 04:43:35;;;;;;;64.63;31.57;;;9.20;99.90;;;;;;4992769;28;20268;-71
2022/11/15 04:46:23;;;;;;;59.33;30.57;;;9.20;99.90;;;;;;4993062;28;20214;-71
2022/11/15 04:49:11;;;;;;;60.23;28.90;;;9.30;99.90;;;;;;4992342;28;20736;-74
2022/11/15 04:51:58;;;;;;;58.57;29.43;;;9.20;99.90;;;;;;4992605;28;20689;-72
2022/11/15 04:54:46;;;;;;;61.73;29.67;;;9.10;99.90;;;;;;4992948;28;20216;-72
2022/11/15 04:57:33;;;;;;;68.87;31.70;;;9.10;99.90;;;;;;4992395;28;20300;-72
2022/11/15 05:00:20;;;;;;;69.63;30.10;;;8.90;99.90;;;;;;4992699;28;20215;-73
2022/11/15 05:06:13;;;;;;;60.40;28.90;;;9.00;99.90;;;;;;5073943;28;20212;-73
2022/11/15 05:09:00;;;;;;;65.07;29.30;;;8.90;99.90;;;;;;5073771;28;20223;-72
2022/11/15 05:11:47;;;;;;;68.40;29.63;;;8.70;99.90;;;;;;5073638;28;20211;-72
2022/11/15 05:14:34;;;;;;;53.43;28.10;;;8.70;99.90;;;;;;5073601;28;20747;-69
2022/11/15 05:17:21;;;;;;;63.50;30.33;;;8.80;99.90;;;;;;5073839;28;20208;-73
2022/11/15 05:20:09;;;;;;;63.20;30.43;;;8.80;99.90;;;;;;5073446;28;20360;-70
2022/11/15 05:22:58;;;;;;;67.40;30.53;;;8.80;99.90;;;;;;5073309;28;20203;-73
2022/11/15 05:25:44;;;;;;;62.23;29.97;;;8.80;99.90;;;;;;5073627;28;20689;-72
2022/11/15 05:28:32;;;;;;;64.23;29.30;;;8.80;99.90;;;;;;5073512;28;20255;-72
2022/11/15 05:31:19;;;;;;;63.10;29.70;;;8.70;99.90;;;;;;5073180;28;20201;-68
2022/11/15 05:34:06;;;;;;;53.13;27.17;;;8.70;99.90;;;;;;5073484;28;20209;-73
2022/11/15 05:36:54;;;;;;;65.27;28.93;;;8.70;99.90;;;;;;5073381;28;20285;-73
2022/11/15 05:39:43;;;;;;;62.87;27.83;;;8.80;99.90;;;;;;5073186;28;20214;-72
2022/11/15 05:42:31;;;;;;;58.63;28.87;;;8.90;99.90;;;;;;5073311;28;20219;-71
2022/11/15 05:45:18;;;;;;;67.97;29.87;;;8.90;99.90;;;;;;5054240;28;20215;-71
2022/11/15 05:48:13;;;;;;;61.27;29.67;;;8.80;99.90;;;;;;5053052;28;20588;-71
2022/11/15 05:51:00;;;;;;;60.30;28.43;;;8.90;99.90;;;;;;5053447;28;20568;-67
2022/11/15 05:53:49;;;;;;;59.63;29.67;;;8.90;99.90;;;;;;5051903;28;20286;-72
2022/11/15 05:56:37;;;;;;;57.00;28.93;;;8.90;99.90;;;;;;5053027;28;20265;-67
2022/11/15 05:59:25;;;;;;;59.90;29.53;;;8.90;99.90;;;;;;5053235;28;20212;-70
2022/11/15 06:02:12;;;;;;;61.13;29.10;;;8.70;99.90;;;;;;5052980;28;20206;-66
2022/11/15 06:04:59;;;;;;;63.07;28.83;;;8.70;99.90;;;;;;5053202;28;20342;-67
2022/11/15 06:07:46;;;;;;;62.60;29.10;;;8.80;99.90;;;;;;5052796;28;20677;-72
2022/11/15 06:10:33;;;;;;;63.70;28.37;;;8.80;99.90;;;;;;5052760;28;20234;-72
2022/11/15 06:13:22;;;;;;;60.13;29.83;;;8.70;99.90;;;;;;5053134;28;20555;-71
2022/11/15 06:16:09;;;;;;;57.40;27.60;;;8.80;99.90;;;;;;5052810;28;20199;-71
2022/11/15 06:18:56;;;;;;;63.77;29.00;;;8.90;99.90;;;;;;5065904;28;20258;-70
2022/11/15 06:21:43;;;;;;;59.70;28.17;;;8.90;99.90;;;;;;5059592;28;20578;-70
2022/11/15 06:24:30;;;;;;;56.27;27.23;;;8.80;99.90;;;;;;5052789;28;20213;-72
2022/11/15 06:27:17;;;;;;;65.33;29.97;;;8.80;99.90;;;;;;5052893;28;20271;-72
2022/11/15 06:30:06;;;;;;;61.90;29.10;;;8.90;99.90;;;;;;5052606;28;20234;-67
2022/11/15 06:33:01;;;;;;;58.57;27.13;;;9.00;99.90;;;;;;5052820;28;20581;-71
2022/11/15 06:35:48;;;;;;;56.63;28.90;;;9.10;99.90;;;;;;5052854;28;20206;-72
2022/11/15 06:38:36;;;;;;;63.97;28.10;;;9.10;99.90;;;;;;5052704;28;20218;-68
2022/11/15 06:41:22;;;;;;;67.83;30.17;;;9.10;99.90;;;;;;5052627;28;20554;-70
2022/11/15 06:44:09;;;;;;;65.90;29.17;;;9.10;99.90;;;;;;5052456;28;20204;-71
2022/11/15 06:46:58;;;;;;;58.03;28.03;;;9.00;99.90;;;;;;5065977;28;20589;-69
2022/11/15 06:49:45;;;;;;;56.17;28.00;;;9.00;99.90;;;;;;5072533;28;20311;-72
2022/11/15 06:52:33;;;;;;;59.33;28.90;;;9.10;99.90;;;;;;5072369;28;20199;-66
2022/11/15 06:55:20;;;;;;;64.33;29.70;;;9.10;99.90;;;;;;5072431;28;20281;-70
2022/11/15 06:58:07;;;;;;;55.53;27.80;;;9.00;99.90;;;;;;5072421;28;20205;-69
2022/11/15 07:00:55;;;;;;;54.47;29.47;;;8.90;99.90;;;;;;5070426;28;20569;-71
2022/11/15 07:03:45;;;;;;;59.10;29.80;;;8.90;99.90;;;;;;5055037;28;20226;-69
2022/11/15 07:06:31;;;;;;;59.43;28.60;;;8.90;99.90;;;;;;5064256;28;20208;-71
2022/11/15 07:09:18;;;;;;;60.90;28.83;;;8.80;99.90;;;;;;5056071;28;20237;-68
2022/11/15 07:12:06;;;;;;;59.83;28.77;;;8.90;99.90;;;;;;5055949;28;20252;-69
2022/11/15 07:14:53;;;;;;;62.70;30.27;;;8.80;99.90;;;;;;5056157;28;20212;-71
2022/11/15 07:17:40;;;;;;;61.43;28.83;;;8.90;99.90;;;;;;5055816;28;20287;-67
2022/11/15 07:20:29;;;;;;;61.57;29.93;;;8.90;99.90;;;;;;5055717;28;20316;-67
2022/11/15 07:23:16;;;;;;;56.07;28.37;;;8.90;99.90;;;;;;5061973;28;20225;-70
2022/11/15 07:26:03;;;;;;;62.53;29.57;;;9.00;99.90;;;;;;5055944;28;20211;-70
2022/11/15 07:28:50;;;;;;;56.40;28.10;;;9.10;99.90;;;;;;5055814;28;20226;-70
2022/11/15 07:31:37;;;;;;;63.83;30.97;;;9.00;99.90;;;;;;5064158;28;20284;-69
2022/11/15 07:34:24;;;;;;;61.03;29.97;;;9.00;99.90;;;;;;5071401;28;20205;-70
2022/11/15 07:37:13;;;;;;;72.70;29.67;;;9.10;99.90;;;;;;5062061;28;20357;-66
2022/11/15 07:40:00;;;;;;;57.80;28.30;;;9.10;99.90;;;;;;5071622;28;20220;-70
2022/11/15 07:42:53;;;;;;;64.23;29.10;;;9.10;99.90;;;;;;5064390;28;20211;-69
2022/11/15 07:45:42;;;;;;;58.57;27.70;;;9.00;99.90;;;;;;5055286;28;20582;-69
2022/11/15 07:48:30;;;;;;;82.23;31.63;;;9.00;99.90;;;;;;5055376;28;20207;-69
2022/11/15 07:51:28;;;;;;;61.90;29.10;;;9.00;99.90;;;;;;5064785;28;20277;-66
2022/11/15 07:54:17;;;;;;;72.30;31.60;;;9.10;99.90;;;;;;5071161;28;20209;-73
2022/11/15 07:57:04;;;;;;;123.43;65.17;;;8.90;99.90;;;;;;5075307;28;20337;-73
2022/11/15 07:59:53;;;;;;;205.77;109.33;;;9.00;99.90;;;;;;5074981;28;20209;-70
2022/11/15 08:02:41;;;;;;;112.83;58.23;;;9.10;99.90;;;;;;5070309;28;20614;-70
2022/11/15 08:05:28;;;;;;;114.97;55.10;;;9.20;99.90;;;;;;5055009;28;20210;-73
2022/11/15 08:08:15;;;;;;;101.97;49.70;;;9.30;99.90;;;;;;5054817;28;20280;-73
2022/11/15 08:11:04;;;;;;;92.10;43.07;;;9.40;99.90;;;;;;5054911;28;20231;-72
2022/11/15 08:13:51;;;;;;;74.87;40.87;;;9.50;99.90;;;;;;5054885;28;20200;-70
2022/11/15 08:16:38;;;;;;;76.30;36.30;;;9.50;99.90;;;;;;5053848;28;20197;-74
2022/11/15 08:19:25;;;;;;;84.27;39.47;;;9.50;99.90;;;;;;5055764;28;20683;-70
2022/11/15 08:22:12;;;;;;;84.23;39.67;;;9.70;99.90;;;;;;5065759;28;20682;-69
2022/11/15 08:24:59;;;;;;;63.10;31.83;;;9.70;99.90;;;;;;5074066;28;20290;-71
2022/11/15 08:27:48;;;;;;;64.97;29.83;;;9.60;99.90;;;;;;5074927;28;20657;-69
2022/11/15 08:30:38;;;;;;;64.87;30.57;;;9.60;99.90;;;;;;5074404;28;20249;-72
2022/11/15 08:33:24;;;;;;;72.43;34.13;;;9.40;99.90;;;;;;5074186;28;20206;-67
2022/11/15 08:43:09;;;;;;;58.67;28.83;;;9.40;99.90;;;;;;4952282;28;20229;-78
2022/11/15 08:45:57;;;;;;;68.23;29.67;;;9.30;99.90;;;;;;4944182;29;20214;-77
2022/11/15 08:48:44;;;;;;;69.60;29.97;;;9.30;99.90;;;;;;4954820;28;20205;-78
2022/11/15 08:51:31;;;;;;;71.60;31.60;;;9.30;99.90;;;;;;4951035;28;20751;-77
2022/11/15 08:54:19;;;;;;;64.60;30.03;;;9.30;99.90;;;;;;4956216;28;20205;-78
2022/11/15 08:57:06;;;;;;;58.60;29.53;;;9.30;99.90;;;;;;4956220;29;20568;-76
2022/11/15 08:59:54;;;;;;;67.20;31.67;;;9.30;99.90;;;;;;4955790;28;20207;-76
2022/11/15 09:02:42;;;;;;;78.03;34.77;;;9.30;99.90;;;;;;4964959;28;20637;-77
2022/11/15 09:05:29;;;;;;;51.97;26.13;;;9.50;99.90;;;;;;4971959;28;20279;-77
2022/11/15 09:08:16;;;;;;;52.60;25.87;;;9.60;99.90;;;;;;4955913;28;20297;-77
2022/11/15 09:11:23;;;;;;;52.80;27.83;;;9.60;99.90;;;;;;4954849;29;20369;-77
2022/11/15 09:14:12;;;;;;;59.90;29.47;;;9.50;99.90;;;;;;4955462;29;20353;-76
2022/11/15 09:17:00;;;;;;;59.17;30.00;;;9.50;99.90;;;;;;4955830;29;20209;-76
2022/11/15 09:19:48;;;;;;;56.23;27.30;;;9.50;99.90;;;;;;4956255;29;20228;-76
2022/11/15 09:22:36;;;;;;;57.37;28.70;;;9.50;99.90;;;;;;4956000;28;20289;-76
2022/11/15 09:25:23;;;;;;;60.93;31.07;;;9.60;99.90;;;;;;4955676;28;20199;-76
2022/11/15 09:28:10;;;;;;;55.20;28.37;;;9.60;99.90;;;;;;4956132;28;20567;-75
2022/11/15 09:30:59;;;;;;;49.50;27.70;;;9.60;99.90;;;;;;4955525;29;20595;-77
2022/11/15 09:33:47;;;;;;;54.53;27.80;;;9.60;99.90;;;;;;4936567;29;20211;-75
2022/11/15 09:36:34;;;;;;;60.23;30.30;;;9.70;99.90;;;;;;4936872;29;20298;-77
2022/11/15 09:39:22;;;;;;;61.63;30.73;;;9.70;99.90;;;;;;4961791;28;20261;-76
2022/11/15 09:42:27;;;;;;;59.43;30.80;;;9.70;99.90;;;;;;4974620;28;20239;-75
2022/11/15 09:45:23;;;;;;;56.17;29.10;;;9.60;99.90;;;;;;4964302;28;20683;-76
2022/11/15 09:48:27;;;;;;;52.73;27.70;;;9.60;99.90;;;;;;4955170;28;20207;-76
2022/11/15 09:51:19;;;;;;;50.83;26.63;;;9.70;99.90;;;;;;4938094;29;20234;-77
2022/11/15 09:53:58;;;;;;;56.80;27.10;;;9.70;99.90;;;;;;4955319;28;20214;-78
2022/11/15 09:56:46;;;;;;;60.70;28.67;;;9.70;99.90;;;;;;4954906;29;20185;-74
2022/11/15 09:59:26;;;;;;;65.90;31.47;;;9.60;99.90;;;;;;4954983;28;20202;-77
2022/11/15 10:02:04;;;;;;;65.63;31.00;;;9.70;99.90;;;;;;4955492;28;20199;-76
2022/11/15 10:04:33;;;;;;;60.27;31.77;;;9.70;99.90;;;;;;4955171;29;20194;-74
2022/11/15 10:07:10;;;;;;;70.03;36.63;;;9.60;99.90;;;;;;4952646;28;20661;-74
2022/11/15 10:09:46;;;;;;;56.07;30.70;;;9.60;99.90;;;;;;4955916;28;20296;-74
2022/11/15 10:12:16;;;;;;;57.33;31.10;;;9.50;99.90;;;;;;4954896;28;20721;-73
2022/11/15 10:14:46;;;;;;;73.23;38.37;;;9.50;99.90;;;;;;4955138;29;20540;-76
2022/11/15 10:17:56;;;;;;;102.23;52.97;;;9.50;99.90;;;;;;4954941;29;20207;-75
2022/11/15 10:20:27;;;;;;;81.23;42.77;;;9.50;99.90;;;;;;4955081;29;20212;-77
2022/11/15 10:23:00;;;;;;;83.47;45.77;;;9.70;99.90;;;;;;4955180;29;20296;-74
2022/11/15 10:25:32;;;;;;;58.40;31.83;;;9.80;99.90;;;;;;4953504;28;20232;-75
2022/11/15 10:28:02;;;;;;;68.97;38.77;;;9.70;99.90;;;;;;4954475;28;20214;-74
2022/11/15 10:30:34;;;;;;;68.83;39.33;;;9.90;99.90;;;;;;4954704;29;20757;-76
2022/11/15 10:33:33;;;;;;;52.57;28.57;;;9.90;99.90;;;;;;4954811;29;20215;-75
2022/11/15 10:36:22;;;;;;;50.00;26.30;;;9.80;99.90;;;;;;4861664;29;20299;-74
2022/11/15 10:38:57;;;;;;;42.80;22.93;;;9.70;99.90;;;;;;4876942;29;20213;-75
2022/11/15 10:41:39;;;;;;;43.90;24.37;;;9.70;99.90;;;;;;4869253;29;20242;-76
2022/11/15 10:44:28;;;;;;;52.83;28.23;;;9.70;99.90;;;;;;4862310;29;20268;-74
2022/11/15 10:47:22;;;;;;;46.70;26.53;;;9.70;99.90;;;;;;4860666;29;20214;-74
2022/11/15 10:50:03;;;;;;;45.40;24.90;;;9.80;99.90;;;;;;4862343;29;20203;-75
2022/11/15 10:52:33;;;;;;;38.23;22.87;;;9.70;99.90;;;;;;4861982;29;20241;-76
2022/11/15 10:55:20;;;;;;;50.60;27.53;;;9.70;99.90;;;;;;4861892;29;20207;-76
2022/11/15 10:57:52;;;;;;;45.90;25.13;;;9.70;99.90;;;;;;4865709;29;20730;-74
2022/11/15 11:00:42;;;;;;;50.87;27.40;;;9.90;99.90;;;;;;4878111;29;20215;-76
2022/11/15 11:03:30;;;;;;;50.00;28.70;;;10.10;99.90;;;;;;4861471;29;20218;-76
2022/11/15 11:06:07;;;;;;;49.70;30.07;;;10.20;99.90;;;;;;4861722;29;20229;-76
2022/11/15 11:08:36;;;;;;;47.17;25.37;;;10.20;99.90;;;;;;4861311;29;20266;-78
2022/11/15 11:11:08;;;;;;;46.63;25.07;;;10.30;99.90;;;;;;4861404;29;20217;-77
2022/11/15 11:13:38;;;;;;;43.50;25.87;;;10.40;99.90;;;;;;4888964;29;20221;-78
2022/11/15 11:16:33;;;;;;;37.30;23.67;;;10.50;99.90;;;;;;4897901;29;20210;-77
2022/11/15 11:19:18;;;;;;;50.67;27.23;;;10.40;99.90;;;;;;4898033;29;20310;-77
2022/11/15 11:21:55;;;;;;;59.23;30.60;;;10.50;99.90;;;;;;4898080;29;20236;-77
2022/11/15 11:24:32;;;;;;;58.90;32.90;;;10.40;99.90;;;;;;4898135;29;20699;-77
2022/11/15 11:27:25;;;;;;;98.77;50.03;;;10.40;99.90;;;;;;4898504;29;20213;-78
2022/11/15 11:30:16;;;;;;;67.80;38.50;;;10.30;99.90;;;;;;4898258;29;20207;-78
2022/11/15 11:33:04;;;;;;;95.77;55.03;;;10.30;99.90;;;;;;4898475;29;20313;-78
2022/11/15 11:35:40;;;;;;;74.47;43.73;;;10.50;99.90;;;;;;4898624;29;20208;-78
2022/11/15 11:38:20;;;;;;;72.80;42.80;;;10.60;99.90;;;;;;4898459;29;20222;-78
2022/11/15 11:41:01;;;;;;;72.23;39.80;;;10.50;99.90;;;;;;4942225;28;20243;-79
2022/11/15 11:43:38;;;;;;;50.17;29.40;;;10.40;99.90;;;;;;4957545;29;20223;-77
2022/11/15 11:46:18;;;;;;;51.17;27.77;;;10.40;99.90;;;;;;4957674;29;20203;-77
2022/11/15 11:48:52;;;;;;;43.37;25.03;;;10.40;99.90;;;;;;4957329;29;20233;-78
2022/11/15 11:51:25;;;;;;;44.13;24.77;;;10.40;99.90;;;;;;4956983;28;20227;-77
2022/11/15 11:53:58;;;;;;;47.13;25.03;;;10.40;99.90;;;;;;4957630;29;20248;-78
2022/11/15 11:56:30;;;;;;;44.70;25.57;;;10.20;99.90;;;;;;4957208;29;20200;-78
2022/11/15 11:59:06;;;;;;;54.90;28.70;;;10.20;99.90;;;;;;4957546;29;20258;-79
2022/11/15 12:01:42;;;;;;;54.23;27.47;;;10.20;99.90;;;;;;4957046;28;20272;-78
2022/11/15 12:04:15;;;;;;;50.60;26.20;;;10.30;99.90;;;;;;4957210;29;20345;-78
2022/11/15 12:06:49;;;;;;;48.00;27.83;;;10.30;99.90;;;;;;4957211;28;20195;-79
2022/11/15 12:09:22;;;;;;;45.27;26.87;;;10.30;99.90;;;;;;4939874;29;20601;-78
2022/11/15 12:11:56;;;;;;;40.53;25.93;;;10.20;99.90;;;;;;4956945;28;20284;-80
2022/11/15 12:14:34;;;;;;;47.60;25.47;;;10.20;99.90;;;;;;4957053;28;20199;-79
2022/11/15 12:17:05;;;;;;;47.70;26.33;;;10.20;99.90;;;;;;4956977;29;20199;-78
2022/11/15 12:19:34;;;;;;;42.13;24.00;;;10.20;99.90;;;;;;4957154;28;20230;-79
2022/11/15 12:22:07;;;;;;;40.93;25.30;;;10.10;99.90;;;;;;4956659;28;20674;-79
2022/11/15 12:24:41;;;;;;;47.47;28.60;;;10.10;99.90;;;;;;4956773;29;20223;-80
2022/11/15 12:27:18;;;;;;;60.93;33.70;;;10.10;99.90;;;;;;4956135;29;20193;-79
2022/11/15 12:29:57;;;;;;;49.33;26.47;;;10.00;99.90;;;;;;4956526;29;20210;-79
2022/11/15 12:32:29;;;;;;;49.67;26.37;;;10.00;99.90;;;;;;4956550;28;20255;-78
2022/11/15 12:35:00;;;;;;;51.33;26.27;;;9.90;99.90;;;;;;4956485;29;20573;-78
2022/11/15 12:37:50;;;;;;;45.60;26.93;;;9.90;99.90;;;;;;4956746;29;20624;-78
2022/11/15 12:40:37;;;;;;;49.83;30.40;;;9.90;99.90;;;;;;4897284;29;20206;-79
2022/11/15 12:43:26;;;;;;;51.37;27.63;;;9.90;99.90;;;;;;4897365;29;20218;-78
2022/11/15 12:46:04;;;;;;;49.37;26.13;;;9.80;99.90;;;;;;4897218;29;20203;-78
2022/11/15 12:48:53;;;;;;;52.60;26.23;;;9.90;99.90;;;;;;4897223;29;20715;-80
2022/11/15 12:51:37;;;;;;;53.50;25.83;;;9.80;99.90;;;;;;4897082;29;20213;-79
2022/11/15 12:54:39;;;;;;;49.03;26.47;;;9.80;99.90;;;;;;4889827;29;20677;-79
2022/11/15 12:57:42;;;;;;;48.60;26.03;;;9.80;99.90;;;;;;4897138;29;20214;-74
2022/11/15 13:00:47;;;;;;;48.63;26.67;;;9.80;99.90;;;;;;4896798;29;20204;-78
2022/11/15 13:03:30;;;;;;;47.63;26.97;;;9.80;99.90;;;;;;4896608;29;20622;-77
2022/11/15 13:06:08;;;;;;;49.47;27.77;;;9.80;99.90;;;;;;4896890;29;20211;-77
2022/11/15 13:08:47;;;;;;;50.50;28.17;;;9.90;99.90;;;;;;4896953;29;20618;-79
2022/11/15 13:11:49;;;;;;;53.33;28.67;;;9.90;99.90;;;;;;4896842;29;20227;-79
2022/11/15 13:14:43;;;;;;;51.50;27.23;;;9.90;99.90;;;;;;4859702;29;20230;-79
2022/11/15 13:17:23;;;;;;;59.10;28.97;;;9.90;99.90;;;;;;4875228;29;20264;-78
2022/11/15 13:20:00;;;;;;;52.80;27.43;;;9.90;99.90;;;;;;4896815;29;20214;-78
2022/11/15 13:22:56;;;;;;;52.33;28.33;;;9.90;99.90;;;;;;4896896;29;20258;-80
2022/11/15 13:25:54;;;;;;;52.47;28.70;;;9.90;99.90;;;;;;4896581;29;20215;-80
2022/11/15 13:28:34;;;;;;;60.03;30.47;;;10.00;99.90;;;;;;4892666;29;20222;-82
2022/11/15 13:31:19;;;;;;;62.83;32.80;;;9.90;99.90;;;;;;4896291;29;20212;-81
2022/11/15 13:33:47;;;;;;;53.23;31.03;;;9.90;99.90;;;;;;4896472;29;20893;-80
2022/11/15 13:36:22;;;;;;;55.67;30.97;;;9.80;99.90;;;;;;4896378;29;20201;-78
2022/11/15 13:38:59;;;;;;;58.90;31.10;;;9.80;99.90;;;;;;4896539;29;20690;-77
2022/11/15 13:41:30;;;;;;;52.80;29.97;;;9.90;99.90;;;;;;4895847;29;20305;-80
2022/11/15 13:43:59;;;;;;;54.10;30.00;;;9.90;99.90;;;;;;4896351;29;20225;-80
2022/11/15 13:46:29;;;;;;;53.27;28.80;;;9.90;99.90;;;;;;4895537;29;20210;-81
2022/11/15 13:49:00;;;;;;;56.10;30.27;;;9.90;99.90;;;;;;4909058;29;20681;-78
2022/11/15 13:51:37;;;;;;;56.90;26.90;;;9.90;99.90;;;;;;4922425;29;20202;-80
2022/11/15 13:54:16;;;;;;;57.77;30.13;;;9.80;99.90;;;;;;4955075;28;20254;-80
2022/11/15 13:56:48;;;;;;;56.50;28.90;;;9.90;99.90;;;;;;4955303;29;20211;-79
2022/11/15 13:59:24;;;;;;;54.90;30.23;;;9.80;99.90;;;;;;4955201;29;20206;-79
2022/11/15 14:01:53;;;;;;;52.63;31.20;;;9.80;99.90;;;;;;4955279;28;20546;-79
2022/11/15 14:04:24;;;;;;;64.03;32.23;;;9.80;99.90;;;;;;4955325;29;20576;-79
2022/11/15 14:06:59;;;;;;;62.57;30.53;;;9.80;99.90;;;;;;4954899;28;20209;-78
2022/11/15 14:09:36;;;;;;;59.37;30.10;;;9.70;99.90;;;;;;4954936;29;20212;-78
2022/11/15 14:12:24;;;;;;;55.40;27.77;;;9.60;99.90;;;;;;4955009;28;20217;-79
2022/11/15 14:14:53;;;;;;;57.90;29.57;;;9.60;99.90;;;;;;4955861;28;20212;-79
2022/11/15 14:17:34;;;;;;;56.33;29.40;;;9.60;99.90;;;;;;4958865;28;20196;-79
2022/11/15 14:20:19;;;;;;;51.90;28.17;;;9.60;99.90;;;;;;4958896;28;20201;-79
2022/11/15 14:22:57;;;;;;;61.63;30.87;;;9.60;99.90;;;;;;4941656;29;20240;-79
2022/11/15 14:25:27;;;;;;;63.27;33.33;;;9.70;99.90;;;;;;4958879;29;20213;-79
2022/11/15 14:28:17;;;;;;;62.47;35.07;;;9.70;99.90;;;;;;4958659;28;20225;-79
2022/11/15 14:30:49;;;;;;;61.27;33.13;;;9.60;99.90;;;;;;4958939;29;20261;-79
2022/11/15 14:33:24;;;;;;;61.40;33.47;;;9.60;99.90;;;;;;4958977;28;20224;-78